Time,TemperatureF,DewpointF,PressureIn,WindDirection,WindDirectionDegrees,WindSpeedMPH,WindSpeedGustMPH,Humidity,HourlyPrecipIn,Conditions,Clouds,dailyrainin,SoftwareType,DateUTC
2013-01-10 00:01:00,56.1,53.5,30.39,North,0,0.0,0.0,91,0.00,CLR,FEW,0.00,WeatherDisplay:10.37,2013-01-10 05:01:00,
2013-01-10 00:03:00,56.1,53.5,30.39,North,0,0.0,0.0,91,0.00,CLR,FEW,0.00,WeatherDisplay:10.37,2013-01-10 05:03:00,
2013-01-10 00:04:00,56.1,53.5,30.39,North,0,0.0,0.0,91,0.00,CLR,FEW,0.00,WeatherDisplay:10.37,2013-01-10 05:04:00,
2013-01-10 00:09:00,56.1,53.8,30.39,North,0,0.0,0.0,92,0.00,CLR,FEW,0.00,WeatherDisplay:10.37,2013-01-10 05:09:00,
2013-01-10 00:12:00,56.1,53.8,30.39,North,0,0.0,0.0,92,0.00,CLR,FEW,0.00,WeatherDisplay:10.37,2013-01-10 05:12:00,
2013-01-10 00:17:00,56.1,53.8,30.39,North,0,0.0,0.0,92,0.00,CLR,FEW,0.00,WeatherDisplay:10.37,2013-01-10 05:17:00,
2013-01-10 00:22:00,56.3,54.0,30.39,North,0,0.0,0.0,92,0.00,CLR,FEW,0.00,WeatherDisplay:10.37,2013-01-10 05:22:00,
2013-01-10 00:24:00,56.5,54.5,30.39,North,0,0.0,0.0,93,0.00,CLR,FEW,0.00,WeatherDisplay:10.37,2013-01-10 05:24:00,
2013-01-10 00:27:00,56.5,54.5,30.39,North,0,0.0,0.0,93,0.00,CLR,FEW,0.00,WeatherDisplay:10.37,2013-01-10 05:27:00,
2013-01-10 00:32:00,56.5,54.5,30.39,North,0,0.0,0.0,93,0.00,CLR,FEW,0.00,WeatherDisplay:10.37,2013-01-10 05:32:00,
2013-01-10 00:35:00,56.8,54.8,30.39,North,0,0.0,0.0,93,0.00,CLR,FEW,0.00,WeatherDisplay:10.37,2013-01-10 05:35:00,
2013-01-10 00:37:00,56.8,54.8,30.39,North,0,0.0,0.0,93,0.00,CLR,FEW,0.00,WeatherDisplay:10.37,2013-01-10 05:37:00,
2013-01-10 00:42:00,56.8,54.8,30.39,North,0,0.0,0.0,93,0.00,CLR,FEW,0.00,WeatherDisplay:10.37,2013-01-10 05:42:00,
2013-01-10 00:49:00,56.7,54.7,30.39,North,0,0.0,0.0,93,0.00,CLR,FEW,0.00,WeatherDisplay:10.37,2013-01-10 05:49:00,
2013-01-10 00:54:00,56.5,54.8,30.39,North,0,0.0,0.0,94,0.00,CLR,FEW,0.00,WeatherDisplay:10.37,2013-01-10 05:54:00,
2013-01-10 00:59:00,56.5,54.8,30.39,North,0,0.0,0.0,94,0.00,CLR,FEW,0.00,WeatherDisplay:10.37,2013-01-10 05:59:00,
2013-01-10 01:04:00,56.7,55.2,30.39,North,0,0.0,0.0,95,0.00,CLR,FEW,0.00,WeatherDisplay:10.37,2013-01-10 06:04:00,
2013-01-10 01:09:00,56.8,55.4,30.39,North,0,0.0,0.0,95,0.00,CLR,FEW,0.00,WeatherDisplay:10.37,2013-01-10 06:09:00,
2013-01-10 01:14:00,56.8,55.4,30.39,North,0,0.0,0.0,95,0.00,CLR,FEW,0.00,WeatherDisplay:10.37,2013-01-10 06:14:00,
2013-01-10 01:19:00,56.7,55.2,30.39,North,0,0.0,0.0,95,0.00,CLR,FEW,0.00,WeatherDisplay:10.37,2013-01-10 06:19:00,
2013-01-10 01:24:00,56.8,55.7,30.39,North,0,0.0,0.0,96,0.00,CLR,FEW,0.00,WeatherDisplay:10.37,2013-01-10 06:24:00,
2013-01-10 01:29:00,56.7,55.5,30.39,North,0,0.0,0.0,96,0.00,CLR,FEW,0.00,WeatherDisplay:10.37,2013-01-10 06:29:00,
2013-01-10 01:34:00,56.7,55.5,30.39,North,0,0.0,0.0,96,0.00,CLR,FEW,0.00,WeatherDisplay:10.37,2013-01-10 06:34:00,
2013-01-10 01:39:00,56.8,56.0,30.39,North,0,0.0,0.0,97,0.00,CLR,FEW,0.00,WeatherDisplay:10.37,2013-01-10 06:39:00,
2013-01-10 01:44:00,57.0,56.2,30.39,North,0,0.0,0.0,97,0.00,CLR,FEW,0.00,WeatherDisplay:10.37,2013-01-10 06:44:00,
2013-01-10 01:49:00,57.0,56.2,30.39,North,0,0.0,0.0,97,0.00,CLR,FEW,0.00,WeatherDisplay:10.37,2013-01-10 06:49:00,
2013-01-10 01:54:00,56.8,56.0,30.39,North,0,0.0,0.0,97,0.00,CLR,FEW,0.00,WeatherDisplay:10.37,2013-01-10 06:54:00,
2013-01-10 01:59:00,56.8,56.0,30.39,North,0,0.0,0.0,97,0.00,CLR,FEW,0.00,WeatherDisplay:10.37,2013-01-10 06:59:00,
2013-01-10 02:04:00,56.7,56.1,30.39,North,0,0.0,0.0,98,0.00,CLR,FEW,0.00,WeatherDisplay:10.37,2013-01-10 07:04:00,
2013-01-10 02:09:00,56.7,56.1,30.39,North,0,0.0,0.0,98,0.00,CLR,FEW,0.00,WeatherDisplay:10.37,2013-01-10 07:09:00,
2013-01-10 02:14:00,56.7,56.1,30.39,North,0,0.0,0.0,98,0.00,CLR,FEW,0.00,WeatherDisplay:10.37,2013-01-10 07:14:00,
2013-01-10 02:19:00,56.8,56.3,30.39,North,0,0.0,0.0,98,0.00,CLR,FEW,0.00,WeatherDisplay:10.37,2013-01-10 07:19:00,
2013-01-10 02:24:00,56.8,56.3,30.39,North,0,0.0,0.0,98,0.00,CLR,FEW,0.00,WeatherDisplay:10.37,2013-01-10 07:24:00,
2013-01-10 02:29:00,56.8,56.3,30.39,North,0,0.0,0.0,98,0.00,CLR,FEW,0.00,WeatherDisplay:10.37,2013-01-10 07:29:00,
2013-01-10 02:34:00,56.8,56.3,30.39,North,0,0.0,0.0,98,0.00,CLR,FEW,0.00,WeatherDisplay:10.37,2013-01-10 07:34:00,
2013-01-10 02:39:00,56.8,56.3,30.39,North,0,0.0,0.0,98,0.00,CLR,FEW,0.00,WeatherDisplay:10.37,2013-01-10 07:39:00,
2013-01-10 02:44:00,56.8,56.3,30.39,North,0,0.0,0.0,98,0.00,CLR,FEW,0.00,WeatherDisplay:10.37,2013-01-10 07:44:00,
2013-01-10 02:49:00,57.0,56.5,30.39,North,0,0.0,0.0,98,0.00,CLR,FEW,0.00,WeatherDisplay:10.37,2013-01-10 07:49:00,
2013-01-10 02:54:00,57.0,56.5,30.39,North,0,0.0,0.0,98,0.00,CLR,FEW,0.00,WeatherDisplay:10.37,2013-01-10 07:54:00,
2013-01-10 02:59:00,57.0,56.5,30.39,North,0,0.0,0.0,98,0.00,CLR,FEW,0.00,WeatherDisplay:10.37,2013-01-10 07:59:00,
2013-01-10 03:04:00,57.0,56.5,30.39,North,0,0.0,0.0,98,0.00,CLR,FEW,0.00,WeatherDisplay:10.37,2013-01-10 08:04:00,
2013-01-10 03:09:00,57.0,56.5,30.39,North,0,0.0,0.0,98,0.00,CLR,FEW,0.00,WeatherDisplay:10.37,2013-01-10 08:09:00,
2013-01-10 03:14:00,57.0,56.5,30.39,North,0,0.0,0.0,98,0.00,CLR,FEW,0.00,WeatherDisplay:10.37,2013-01-10 08:14:00,
2013-01-10 03:19:00,57.0,56.5,30.39,North,0,0.0,0.0,98,0.00,CLR,FEW,0.00,WeatherDisplay:10.37,2013-01-10 08:19:00,
2013-01-10 03:24:00,57.2,56.6,30.39,North,0,0.0,0.0,98,0.00,CLR,FEW,0.00,WeatherDisplay:10.37,2013-01-10 08:24:00,
2013-01-10 03:29:00,57.2,56.6,30.39,North,0,0.0,0.0,98,0.00,CLR,FEW,0.00,WeatherDisplay:10.37,2013-01-10 08:29:00,
2013-01-10 03:34:00,57.2,56.6,30.39,North,0,0.0,0.0,98,0.00,CLR,FEW,0.00,WeatherDisplay:10.37,2013-01-10 08:34:00,
2013-01-10 03:39:00,57.2,56.6,30.39,North,0,0.0,0.0,98,0.00,CLR,FEW,0.00,WeatherDisplay:10.37,2013-01-10 08:39:00,
2013-01-10 03:45:00,57.2,56.6,30.39,North,0,0.0,0.0,98,0.00,CLR,FEW,0.00,WeatherDisplay:10.37,2013-01-10 08:45:00,
2013-01-10 03:50:00,57.2,56.6,30.39,North,0,0.0,0.0,98,0.00,CLR,FEW,0.00,WeatherDisplay:10.37,2013-01-10 08:50:00,
2013-01-10 03:55:00,57.2,56.6,30.39,North,0,0.0,0.0,98,0.00,CLR,FEW,0.00,WeatherDisplay:10.37,2013-01-10 08:55:00,
2013-01-10 04:00:00,57.2,56.6,30.39,North,0,0.0,0.0,98,0.00,CLR,FEW,0.00,WeatherDisplay:10.37,2013-01-10 09:00:00,
2013-01-10 04:05:00,57.2,56.6,30.39,North,0,0.0,0.0,98,0.00,CLR,FEW,0.00,WeatherDisplay:10.37,2013-01-10 09:05:00,
2013-01-10 04:10:00,57.2,56.6,30.39,North,0,0.0,0.0,98,0.00,CLR,FEW,0.00,WeatherDisplay:10.37,2013-01-10 09:10:00,
2013-01-10 04:16:00,57.0,56.5,30.39,North,0,0.0,0.0,98,0.00,CLR,FEW,0.00,WeatherDisplay:10.37,2013-01-10 09:16:00,
2013-01-10 04:21:00,56.8,56.3,30.39,North,0,0.0,0.0,98,0.00,CLR,FEW,0.00,WeatherDisplay:10.37,2013-01-10 09:21:00,
2013-01-10 04:26:00,57.0,56.5,30.39,North,0,0.0,0.0,98,0.00,CLR,FEW,0.00,WeatherDisplay:10.37,2013-01-10 09:26:00,
2013-01-10 04:31:00,57.2,56.6,30.39,North,0,0.0,0.0,98,0.00,CLR,FEW,0.00,WeatherDisplay:10.37,2013-01-10 09:31:00,
2013-01-10 04:36:00,57.2,56.6,30.39,North,0,0.0,0.0,98,0.00,CLR,FEW,0.00,WeatherDisplay:10.37,2013-01-10 09:36:00,
2013-01-10 04:41:00,57.4,56.8,30.39,North,0,0.0,0.0,98,0.00,CLR,FEW,0.00,WeatherDisplay:10.37,2013-01-10 09:41:00,
2013-01-10 04:46:00,57.4,56.8,30.39,North,0,0.0,0.0,98,0.00,CLR,FEW,0.00,WeatherDisplay:10.37,2013-01-10 09:46:00,
2013-01-10 04:51:00,57.4,56.8,30.39,North,0,0.0,0.0,98,0.00,CLR,FEW,0.00,WeatherDisplay:10.37,2013-01-10 09:51:00,
2013-01-10 04:56:00,57.4,56.8,30.39,North,0,0.0,0.0,98,0.00,CLR,FEW,0.00,WeatherDisplay:10.37,2013-01-10 09:56:00,
2013-01-10 05:01:00,57.4,56.8,30.39,North,0,0.0,0.0,98,0.00,CLR,FEW,0.00,WeatherDisplay:10.37,2013-01-10 10:01:00,
2013-01-10 05:06:00,57.4,56.8,30.39,North,0,0.0,0.0,98,0.00,CLR,FEW,0.00,WeatherDisplay:10.37,2013-01-10 10:06:00,
2013-01-10 05:11:00,57.4,56.8,30.39,North,0,0.0,0.0,98,0.00,CLR,FEW,0.00,WeatherDisplay:10.37,2013-01-10 10:11:00,
2013-01-10 05:16:00,57.2,56.6,30.39,North,0,0.0,0.0,98,0.00,CLR,FEW,0.00,WeatherDisplay:10.37,2013-01-10 10:16:00,
2013-01-10 05:21:00,57.4,56.8,30.39,North,0,0.0,0.0,98,0.00,CLR,FEW,0.00,WeatherDisplay:10.37,2013-01-10 10:21:00,
2013-01-10 05:26:00,57.2,56.6,30.39,North,0,0.0,0.0,98,0.00,CLR,FEW,0.00,WeatherDisplay:10.37,2013-01-10 10:26:00,
2013-01-10 05:31:00,57.2,56.6,30.39,North,0,0.0,0.0,98,0.00,CLR,FEW,0.00,WeatherDisplay:10.37,2013-01-10 10:31:00,
2013-01-10 05:36:00,57.2,56.6,30.39,North,0,0.0,0.0,98,0.00,CLR,FEW,0.00,WeatherDisplay:10.37,2013-01-10 10:36:00,
2013-01-10 05:41:00,57.4,56.8,30.39,North,0,0.0,0.0,98,0.00,CLR,FEW,0.00,WeatherDisplay:10.37,2013-01-10 10:41:00,
2013-01-10 05:56:00,57.4,56.8,30.39,North,0,0.0,0.0,98,0.00,CLR,FEW,0.00,WeatherDisplay:10.37,2013-01-10 10:56:00,
2013-01-10 06:02:00,57.2,56.6,30.39,North,0,0.0,0.0,98,0.00,CLR,FEW,0.00,WeatherDisplay:10.37,2013-01-10 11:02:00,
2013-01-10 06:08:00,57.2,56.6,30.39,North,0,0.0,0.0,98,0.00,CLR,FEW,0.00,WeatherDisplay:10.37,2013-01-10 11:08:00,
2013-01-10 06:13:00,57.2,56.6,30.39,North,0,0.0,0.0,98,0.00,CLR,FEW,0.00,WeatherDisplay:10.37,2013-01-10 11:13:00,
2013-01-10 06:18:00,57.2,56.6,30.39,North,0,0.0,0.0,98,0.00,CLR,FEW,0.00,WeatherDisplay:10.37,2013-01-10 11:18:00,
2013-01-10 06:23:00,57.2,56.6,30.39,North,0,0.0,0.0,98,0.00,CLR,FEW,0.00,WeatherDisplay:10.37,2013-01-10 11:23:00,
2013-01-10 06:28:00,57.2,56.6,30.42,North,0,0.0,0.0,98,0.00,CLR,FEW,0.00,WeatherDisplay:10.37,2013-01-10 11:28:00,
2013-01-10 06:33:00,57.0,56.5,30.42,North,0,0.0,0.0,98,0.00,CLR,FEW,0.00,WeatherDisplay:10.37,2013-01-10 11:33:00,
2013-01-10 06:38:00,57.0,56.5,30.42,North,0,0.0,0.0,98,0.00,CLR,FEW,0.00,WeatherDisplay:10.37,2013-01-10 11:38:00,
2013-01-10 06:43:00,56.8,56.3,30.42,North,0,0.0,0.0,98,0.00,CLR,FEW,0.00,WeatherDisplay:10.37,2013-01-10 11:43:00,
2013-01-10 06:48:00,56.8,56.3,30.42,North,0,0.0,0.0,98,0.00,CLR,FEW,0.00,WeatherDisplay:10.37,2013-01-10 11:48:00,
2013-01-10 06:53:00,56.8,56.3,30.42,North,0,0.0,0.0,98,0.00,CLR,FEW,0.00,WeatherDisplay:10.37,2013-01-10 11:53:00,
2013-01-10 06:58:00,56.8,56.3,30.42,North,0,0.0,0.0,98,0.00,CLR,FEW,0.00,WeatherDisplay:10.37,2013-01-10 11:58:00,
2013-01-10 07:03:00,56.8,56.3,30.42,North,0,0.0,0.0,98,0.00,CLR,FEW,0.00,WeatherDisplay:10.37,2013-01-10 12:03:00,
2013-01-10 07:08:00,56.7,56.1,30.42,North,0,0.0,0.0,98,0.00,CLR,FEW,0.00,WeatherDisplay:10.37,2013-01-10 12:08:00,
2013-01-10 07:13:00,56.8,56.3,30.42,North,0,0.0,0.0,98,0.00,CLR,FEW,0.00,WeatherDisplay:10.37,2013-01-10 12:13:00,
2013-01-10 07:18:00,56.8,56.3,30.42,North,0,0.0,0.0,98,0.00,CLR,FEW,0.00,WeatherDisplay:10.37,2013-01-10 12:18:00,
2013-01-10 07:23:00,57.0,56.5,30.42,North,0,0.0,0.0,98,0.00,CLR,FEW,0.00,WeatherDisplay:10.37,2013-01-10 12:23:00,
2013-01-10 07:28:00,57.0,56.5,30.42,North,0,0.0,0.0,98,0.00,CLR,FEW,0.00,WeatherDisplay:10.37,2013-01-10 12:28:00,
2013-01-10 07:33:00,57.0,56.5,30.42,North,0,0.0,0.0,98,0.00,CLR,FEW,0.00,WeatherDisplay:10.37,2013-01-10 12:33:00,
2013-01-10 07:38:00,56.8,56.3,30.42,North,0,0.0,0.0,98,0.00,CLR,FEW,0.00,WeatherDisplay:10.37,2013-01-10 12:38:00,
2013-01-10 07:43:00,57.0,56.5,30.42,North,0,0.0,0.0,98,0.00,CLR,FEW,0.00,WeatherDisplay:10.37,2013-01-10 12:43:00,
2013-01-10 07:48:00,57.0,56.5,30.42,North,0,0.0,0.0,98,0.00,CLR,FEW,0.00,WeatherDisplay:10.37,2013-01-10 12:48:00,
2013-01-10 07:53:00,57.0,56.5,30.42,North,0,0.0,0.0,98,0.00,CLR,FEW,0.00,WeatherDisplay:10.37,2013-01-10 12:53:00,
2013-01-10 07:58:00,57.0,56.5,30.44,North,0,0.0,0.0,98,0.00,CLR,FEW,0.00,WeatherDisplay:10.37,2013-01-10 12:58:00,
2013-01-10 08:03:00,57.0,56.5,30.44,North,0,0.0,0.0,98,0.00,CLR,FEW,0.00,WeatherDisplay:10.37,2013-01-10 13:03:00,
2013-01-10 08:08:00,57.2,56.6,30.44,North,0,0.0,0.0,98,0.00,CLR,FEW,0.00,WeatherDisplay:10.37,2013-01-10 13:08:00,
2013-01-10 08:13:00,57.2,56.6,30.44,North,0,0.0,0.0,98,0.00,CLR,FEW,0.00,WeatherDisplay:10.37,2013-01-10 13:13:00,
2013-01-10 08:18:00,57.2,56.6,30.44,North,0,0.0,0.0,98,0.00,CLR,FEW,0.00,WeatherDisplay:10.37,2013-01-10 13:18:00,
2013-01-10 08:23:00,57.2,56.6,30.44,North,0,0.0,0.0,98,0.00,CLR,FEW,0.00,WeatherDisplay:10.37,2013-01-10 13:23:00,
2013-01-10 08:44:00,58.5,57.9,30.44,North,0,0.0,0.0,98,0.00,CLR,FEW,0.00,WeatherDisplay:10.37,2013-01-10 13:44:00,
2013-01-10 08:49:00,59.0,58.4,30.44,North,0,0.0,0.0,98,0.00,CLR,FEW,0.00,WeatherDisplay:10.37,2013-01-10 13:49:00,
2013-01-10 08:54:00,59.4,58.8,30.44,North,0,0.0,0.0,98,0.00,CLR,FEW,0.00,WeatherDisplay:10.37,2013-01-10 13:54:00,
2013-01-10 08:59:00,60.1,59.5,30.44,North,0,0.0,0.0,98,0.00,CLR,FEW,0.00,WeatherDisplay:10.37,2013-01-10 13:59:00,
2013-01-10 09:04:00,60.8,60.2,30.44,North,0,0.0,0.0,98,0.00,CLR,FEW,0.00,WeatherDisplay:10.37,2013-01-10 14:04:00,
2013-01-10 09:09:00,61.3,60.8,30.44,North,0,0.0,0.0,98,0.00,CLR,FEW,0.00,WeatherDisplay:10.37,2013-01-10 14:09:00,
2013-01-10 09:14:00,61.9,61.3,30.44,North,0,0.0,0.0,98,0.00,CLR,FEW,0.00,WeatherDisplay:10.37,2013-01-10 14:14:00,
2013-01-10 09:19:00,62.8,62.2,30.44,North,0,0.0,0.0,98,0.00,CLR,FEW,0.00,WeatherDisplay:10.37,2013-01-10 14:19:00,
2013-01-10 09:24:00,63.7,63.1,30.44,North,0,0.0,0.0,98,0.00,CLR,FEW,0.00,WeatherDisplay:10.37,2013-01-10 14:24:00,
2013-01-10 09:29:00,64.2,63.6,30.44,North,0,0.0,0.0,98,0.00,CLR,FEW,0.00,WeatherDisplay:10.37,2013-01-10 14:29:00,
2013-01-10 09:34:00,63.9,63.3,30.44,North,0,0.0,0.0,98,0.00,CLR,FEW,0.00,WeatherDisplay:10.37,2013-01-10 14:34:00,
2013-01-10 09:39:00,63.1,60.5,30.44,North,0,0.0,0.0,91,0.00,CLR,FEW,0.00,WeatherDisplay:10.37,2013-01-10 14:39:00,
2013-01-10 09:44:00,64.2,51.8,30.44,North,0,0.0,0.0,64,0.00,CLR,FEW,0.00,WeatherDisplay:10.37,2013-01-10 14:44:00,
2013-01-10 09:49:00,64.6,51.3,30.44,North,0,0.0,0.0,62,0.00,CLR,FEW,0.00,WeatherDisplay:10.37,2013-01-10 14:49:00,
2013-01-10 09:54:00,64.9,50.3,30.44,North,0,0.0,0.0,59,0.00,CLR,FEW,0.00,WeatherDisplay:10.37,2013-01-10 14:54:00,
2013-01-10 09:59:00,65.1,49.0,30.44,North,0,0.0,0.0,56,0.00,CLR,FEW,0.00,WeatherDisplay:10.37,2013-01-10 14:59:00,
2013-01-10 10:04:00,65.3,48.7,30.44,North,0,0.0,0.0,55,0.00,CLR,FEW,0.00,WeatherDisplay:10.37,2013-01-10 15:04:00,
2013-01-10 10:09:00,65.3,48.2,30.44,North,0,0.0,0.0,54,0.00,CLR,FEW,0.00,WeatherDisplay:10.37,2013-01-10 15:09:00,
2013-01-10 10:14:00,65.3,48.2,30.44,North,0,0.0,0.0,54,0.00,CLR,FEW,0.00,WeatherDisplay:10.37,2013-01-10 15:14:00,
2013-01-10 10:19:00,65.5,47.9,30.44,North,0,0.0,0.0,53,0.00,CLR,FEW,0.00,WeatherDisplay:10.37,2013-01-10 15:19:00,
2013-01-10 10:24:00,65.5,47.9,30.44,North,0,0.0,0.0,53,0.00,CLR,FEW,0.00,WeatherDisplay:10.37,2013-01-10 15:24:00,
2013-01-10 10:30:00,65.5,47.4,30.44,North,0,0.0,0.0,52,0.00,CLR,FEW,0.00,WeatherDisplay:10.37,2013-01-10 15:30:00,
2013-01-10 10:35:00,65.5,47.4,30.44,North,0,0.0,0.0,52,0.00,CLR,FEW,0.00,WeatherDisplay:10.37,2013-01-10 15:35:00,
2013-01-10 10:41:00,65.1,47.1,30.44,North,0,0.0,0.0,52,0.00,CLR,FEW,0.00,WeatherDisplay:10.37,2013-01-10 15:41:00,
2013-01-10 10:46:00,64.2,47.2,30.44,North,0,0.0,0.0,54,0.00,CLR,FEW,0.00,WeatherDisplay:10.37,2013-01-10 15:46:00,
2013-01-10 10:51:00,63.3,47.3,30.44,North,0,0.0,0.0,56,0.00,CLR,FEW,0.00,WeatherDisplay:10.37,2013-01-10 15:51:00,
2013-01-10 10:56:00,63.0,48.4,30.44,North,0,0.0,0.0,59,0.00,CLR,FEW,0.00,WeatherDisplay:10.37,2013-01-10 15:56:00,
2013-01-10 11:01:00,61.9,48.3,30.44,North,0,0.0,0.0,61,0.00,CLR,FEW,0.00,WeatherDisplay:10.37,2013-01-10 16:01:00,
2013-01-10 11:06:00,61.9,49.6,30.44,North,0,0.0,0.0,64,0.00,CLR,FEW,0.00,WeatherDisplay:10.37,2013-01-10 16:06:00,
2013-01-10 11:11:00,61.9,48.7,30.44,North,0,0.0,0.0,62,0.00,CLR,FEW,0.00,WeatherDisplay:10.37,2013-01-10 16:11:00,
2013-01-10 11:16:00,62.1,48.9,30.44,North,0,0.0,0.0,62,0.00,CLR,FEW,0.00,WeatherDisplay:10.37,2013-01-10 16:16:00,
2013-01-10 11:21:00,62.1,49.3,30.44,North,0,0.0,0.0,63,0.00,CLR,FEW,0.00,WeatherDisplay:10.37,2013-01-10 16:21:00,
2013-01-10 11:26:00,62.1,48.9,30.44,North,0,0.0,0.0,62,0.00,CLR,FEW,0.00,WeatherDisplay:10.37,2013-01-10 16:26:00,
2013-01-10 11:31:00,62.6,49.4,30.44,North,0,0.0,0.0,62,0.00,CLR,FEW,0.00,WeatherDisplay:10.37,2013-01-10 16:31:00,
2013-01-10 11:36:00,63.1,49.0,30.44,North,0,0.0,0.0,60,0.00,CLR,FEW,0.00,WeatherDisplay:10.37,2013-01-10 16:36:00,
2013-01-10 11:41:00,63.5,47.0,30.44,North,0,0.0,0.0,55,0.00,CLR,FEW,0.00,WeatherDisplay:10.37,2013-01-10 16:41:00,
2013-01-10 11:46:00,63.7,47.7,30.42,North,0,0.0,0.0,56,0.00,CLR,FEW,0.00,WeatherDisplay:10.37,2013-01-10 16:46:00,
2013-01-10 11:51:00,63.9,46.9,30.42,North,0,0.0,0.0,54,0.00,CLR,FEW,0.00,WeatherDisplay:10.37,2013-01-10 16:51:00,
2013-01-10 11:56:00,63.9,47.4,30.42,North,0,0.0,0.0,55,0.00,CLR,FEW,0.00,WeatherDisplay:10.37,2013-01-10 16:56:00,
2013-01-10 12:01:00,64.0,46.6,30.42,North,0,0.0,0.0,53,0.00,CLR,FEW,0.00,WeatherDisplay:10.37,2013-01-10 17:01:00,
2013-01-10 12:06:00,64.0,47.5,30.42,North,0,0.0,0.0,55,0.00,CLR,FEW,0.00,WeatherDisplay:10.37,2013-01-10 17:06:00,
2013-01-10 12:11:00,64.0,47.5,30.42,North,0,0.0,0.0,55,0.00,CLR,FEW,0.00,WeatherDisplay:10.37,2013-01-10 17:11:00,
2013-01-10 12:16:00,64.0,47.5,30.42,North,0,0.0,0.0,55,0.00,CLR,FEW,0.00,WeatherDisplay:10.37,2013-01-10 17:16:00,
2013-01-10 12:21:00,64.2,46.7,30.42,North,0,0.0,0.0,53,0.00,CLR,FEW,0.00,WeatherDisplay:10.37,2013-01-10 17:21:00,
2013-01-10 12:26:00,64.2,46.2,30.42,North,0,0.0,0.0,52,0.00,CLR,FEW,0.00,WeatherDisplay:10.37,2013-01-10 17:26:00,
2013-01-10 12:31:00,64.0,46.6,30.42,North,0,0.0,0.0,53,0.00,CLR,FEW,0.00,WeatherDisplay:10.37,2013-01-10 17:31:00,
2013-01-10 12:36:00,63.7,46.2,30.42,North,0,0.0,0.0,53,0.00,CLR,FEW,0.00,WeatherDisplay:10.37,2013-01-10 17:36:00,
2013-01-10 12:41:00,63.1,45.7,30.42,North,0,0.0,0.0,53,0.00,CLR,FEW,0.00,WeatherDisplay:10.37,2013-01-10 17:41:00,
2013-01-10 12:46:00,62.4,46.5,30.42,North,0,0.0,0.0,56,0.00,CLR,FEW,0.00,WeatherDisplay:10.37,2013-01-10 17:46:00,
2013-01-10 12:51:00,62.1,46.2,30.42,North,0,0.0,0.0,56,0.00,CLR,FEW,0.00,WeatherDisplay:10.37,2013-01-10 17:51:00,
2013-01-10 12:56:00,62.1,46.2,30.42,North,0,0.0,0.0,56,0.00,CLR,FEW,0.00,WeatherDisplay:10.37,2013-01-10 17:56:00,
2013-01-10 13:01:00,62.1,46.2,30.39,North,0,0.0,0.0,56,0.00,CLR,FEW,0.00,WeatherDisplay:10.37,2013-01-10 18:01:00,
2013-01-10 13:06:00,62.1,45.7,30.39,North,0,0.0,0.0,55,0.00,CLR,FEW,0.00,WeatherDisplay:10.37,2013-01-10 18:06:00,
2013-01-10 13:11:00,62.1,45.7,30.39,North,0,0.0,0.0,55,0.00,CLR,FEW,0.00,WeatherDisplay:10.37,2013-01-10 18:11:00,
2013-01-10 13:16:00,61.9,46.0,30.39,North,0,0.0,0.0,56,0.00,CLR,FEW,0.00,WeatherDisplay:10.37,2013-01-10 18:16:00,
2013-01-10 13:21:00,62.1,46.2,30.39,North,0,0.0,0.0,56,0.00,CLR,FEW,0.00,WeatherDisplay:10.37,2013-01-10 18:21:00,
2013-01-10 13:26:00,62.2,46.3,30.39,North,0,0.0,0.0,56,0.00,CLR,FEW,0.00,WeatherDisplay:10.37,2013-01-10 18:26:00,
2013-01-10 13:31:00,62.2,45.9,30.39,North,0,0.0,0.0,55,0.00,CLR,FEW,0.00,WeatherDisplay:10.37,2013-01-10 18:31:00,
2013-01-10 13:36:00,61.9,46.0,30.39,North,0,0.0,0.0,56,0.00,CLR,FEW,0.00,WeatherDisplay:10.37,2013-01-10 18:36:00,
2013-01-10 13:41:00,62.1,46.2,30.39,North,0,0.0,0.0,56,0.00,CLR,FEW,0.00,WeatherDisplay:10.37,2013-01-10 18:41:00,
2013-01-10 13:46:00,62.1,45.7,30.39,North,0,0.0,0.0,55,0.00,CLR,FEW,0.00,WeatherDisplay:10.37,2013-01-10 18:46:00,
2013-01-10 13:51:00,61.7,45.8,30.39,North,0,0.0,0.0,56,0.00,CLR,FEW,0.00,WeatherDisplay:10.37,2013-01-10 18:51:00,
2013-01-10 13:56:00,61.3,46.0,30.39,North,0,0.0,0.0,57,0.00,CLR,FEW,0.00,WeatherDisplay:10.37,2013-01-10 18:56:00,
2013-01-10 14:01:00,61.3,46.4,30.39,North,0,0.0,0.0,58,0.00,CLR,FEW,0.00,WeatherDisplay:10.37,2013-01-10 19:01:00,
2013-01-10 14:06:00,61.0,46.5,30.39,North,0,0.0,0.0,59,0.00,CLR,FEW,0.00,WeatherDisplay:10.37,2013-01-10 19:06:00,
2013-01-10 14:11:00,61.0,47.0,30.39,North,0,0.0,0.0,60,0.00,CLR,FEW,0.00,WeatherDisplay:10.37,2013-01-10 19:11:00,
2013-01-10 14:16:00,60.8,47.3,30.42,North,0,0.0,0.0,61,0.00,CLR,FEW,0.00,WeatherDisplay:10.37,2013-01-10 19:16:00,
2013-01-10 14:21:00,60.8,47.3,30.42,North,0,0.0,0.0,61,0.00,CLR,FEW,0.00,WeatherDisplay:10.37,2013-01-10 19:21:00,
2013-01-10 14:26:00,61.0,47.0,30.42,North,0,0.0,0.0,60,0.00,CLR,FEW,0.00,WeatherDisplay:10.37,2013-01-10 19:26:00,
2013-01-10 14:32:00,61.0,46.1,30.42,North,0,0.0,0.0,58,0.00,CLR,FEW,0.00,WeatherDisplay:10.37,2013-01-10 19:32:00,
2013-01-10 14:37:00,60.6,46.7,30.42,North,0,0.0,0.0,60,0.00,CLR,FEW,0.00,WeatherDisplay:10.37,2013-01-10 19:37:00,
2013-01-10 14:43:00,60.4,46.9,30.42,North,0,0.0,0.0,61,0.00,CLR,FEW,0.00,WeatherDisplay:10.37,2013-01-10 19:43:00,
2013-01-10 14:48:00,60.1,47.0,30.42,North,0,0.0,0.0,62,0.00,CLR,FEW,0.00,WeatherDisplay:10.37,2013-01-10 19:48:00,
2013-01-10 14:53:00,59.9,47.3,30.42,North,0,0.0,0.0,63,0.00,CLR,FEW,0.00,WeatherDisplay:10.37,2013-01-10 19:53:00,
2013-01-10 14:58:00,59.9,47.3,30.42,North,0,0.0,0.0,63,0.00,CLR,FEW,0.00,WeatherDisplay:10.37,2013-01-10 19:58:00,
2013-01-10 15:03:00,60.1,46.6,30.42,North,0,0.0,0.0,61,0.00,CLR,FEW,0.00,WeatherDisplay:10.37,2013-01-10 20:03:00,
2013-01-10 15:08:00,59.9,46.8,30.42,North,0,0.0,0.0,62,0.00,CLR,FEW,0.00,WeatherDisplay:10.37,2013-01-10 20:08:00,
2013-01-10 15:14:00,59.9,46.8,30.42,North,0,0.0,0.0,62,0.00,CLR,FEW,0.00,WeatherDisplay:10.37,2013-01-10 20:14:00,
2013-01-10 15:19:00,59.7,46.2,30.42,North,0,0.0,0.0,61,0.00,CLR,FEW,0.00,WeatherDisplay:10.37,2013-01-10 20:19:00,
2013-01-10 15:24:00,59.5,46.1,30.42,North,0,0.0,0.0,61,0.00,CLR,FEW,0.00,WeatherDisplay:10.37,2013-01-10 20:24:00,
2013-01-10 15:29:00,59.5,46.5,30.42,North,0,0.0,0.0,62,0.00,CLR,FEW,0.00,WeatherDisplay:10.37,2013-01-10 20:29:00,
2013-01-10 15:34:00,59.7,45.8,30.42,North,0,0.0,0.0,60,0.00,CLR,FEW,0.00,WeatherDisplay:10.37,2013-01-10 20:34:00,
2013-01-10 15:39:00,60.1,45.2,30.42,North,0,0.0,0.0,58,0.00,CLR,FEW,0.00,WeatherDisplay:10.37,2013-01-10 20:39:00,
2013-01-10 15:44:00,60.3,44.5,30.42,North,0,0.0,0.0,56,0.00,CLR,FEW,0.00,WeatherDisplay:10.37,2013-01-10 20:44:00,
2013-01-10 15:49:00,60.3,44.5,30.42,North,0,0.0,0.0,56,0.00,CLR,FEW,0.00,WeatherDisplay:10.37,2013-01-10 20:49:00,
2013-01-10 15:54:00,60.4,45.1,30.42,North,0,0.0,0.0,57,0.00,CLR,FEW,0.00,WeatherDisplay:10.37,2013-01-10 20:54:00,
2013-01-10 15:59:00,60.4,43.7,30.42,North,0,0.0,0.0,54,0.00,CLR,FEW,0.00,WeatherDisplay:10.37,2013-01-10 20:59:00,
2013-01-10 16:04:00,60.3,43.5,30.42,North,0,0.0,0.0,54,0.00,CLR,FEW,0.00,WeatherDisplay:10.37,2013-01-10 21:04:00,
2013-01-10 16:09:00,59.9,43.2,30.42,North,0,0.0,0.0,54,0.00,CLR,FEW,0.00,WeatherDisplay:10.37,2013-01-10 21:09:00,
2013-01-10 16:14:00,59.7,43.0,30.42,North,0,0.0,0.0,54,0.00,CLR,FEW,0.00,WeatherDisplay:10.37,2013-01-10 21:14:00,
2013-01-10 16:19:00,59.7,43.5,30.42,North,0,0.0,0.0,55,0.00,CLR,FEW,0.00,WeatherDisplay:10.37,2013-01-10 21:19:00,
2013-01-10 16:24:00,59.5,43.3,30.42,North,0,0.0,0.0,55,0.00,CLR,FEW,0.00,WeatherDisplay:10.37,2013-01-10 21:24:00,
2013-01-10 16:29:00,59.4,43.7,30.42,North,0,0.0,0.0,56,0.00,CLR,FEW,0.00,WeatherDisplay:10.37,2013-01-10 21:29:00,
2013-01-10 16:34:00,59.4,43.7,30.42,North,0,0.0,0.0,56,0.00,CLR,FEW,0.00,WeatherDisplay:10.37,2013-01-10 21:34:00,
2013-01-10 16:39:00,59.0,44.2,30.42,North,0,0.0,0.0,58,0.00,CLR,FEW,0.00,WeatherDisplay:10.37,2013-01-10 21:39:00,
2013-01-10 16:44:00,58.8,45.0,30.42,North,0,0.0,0.0,60,0.00,CLR,FEW,0.00,WeatherDisplay:10.37,2013-01-10 21:44:00,
2013-01-10 16:49:00,58.5,45.1,30.42,North,0,0.0,0.0,61,0.00,CLR,FEW,0.00,WeatherDisplay:10.37,2013-01-10 21:49:00,
2013-01-10 16:54:00,58.3,45.3,30.42,North,0,0.0,0.0,62,0.00,CLR,FEW,0.00,WeatherDisplay:10.37,2013-01-10 21:54:00,
2013-01-10 16:59:00,58.1,45.1,30.42,North,0,0.0,0.0,62,0.00,CLR,FEW,0.00,WeatherDisplay:10.37,2013-01-10 21:59:00,
2013-01-10 17:04:00,57.9,45.4,30.42,North,0,0.0,0.0,63,0.00,CLR,FEW,0.00,WeatherDisplay:10.37,2013-01-10 22:04:00,
2013-01-10 17:09:00,57.7,45.2,30.42,North,0,0.0,0.0,63,0.00,CLR,FEW,0.00,WeatherDisplay:10.37,2013-01-10 22:09:00,
2013-01-10 17:14:00,57.7,45.2,30.39,North,0,0.0,0.0,63,0.00,CLR,FEW,0.00,WeatherDisplay:10.37,2013-01-10 22:14:00,
2013-01-10 17:19:00,57.7,45.6,30.39,North,0,0.0,0.0,64,0.00,CLR,FEW,0.00,WeatherDisplay:10.37,2013-01-10 22:19:00,
2013-01-10 17:24:00,57.6,45.5,30.39,North,0,0.0,0.0,64,0.00,CLR,FEW,0.00,WeatherDisplay:10.37,2013-01-10 22:24:00,
2013-01-10 17:29:00,57.6,45.9,30.42,North,0,0.0,0.0,65,0.00,CLR,FEW,0.00,WeatherDisplay:10.37,2013-01-10 22:29:00,
2013-01-10 17:34:00,57.4,46.1,30.42,North,0,0.0,0.0,66,0.00,CLR,FEW,0.00,WeatherDisplay:10.37,2013-01-10 22:34:00,
2013-01-10 17:39:00,57.2,45.9,30.42,North,0,0.0,0.0,66,0.00,CLR,FEW,0.00,WeatherDisplay:10.37,2013-01-10 22:39:00,
2013-01-10 17:44:00,57.2,45.9,30.42,North,0,0.0,0.0,66,0.00,CLR,FEW,0.00,WeatherDisplay:10.37,2013-01-10 22:44:00,
2013-01-10 17:49:00,57.2,45.9,30.42,North,0,0.0,0.0,66,0.00,CLR,FEW,0.00,WeatherDisplay:10.37,2013-01-10 22:49:00,
2013-01-10 17:54:00,57.0,46.2,30.42,North,0,0.0,0.0,67,0.00,CLR,FEW,0.00,WeatherDisplay:10.37,2013-01-10 22:54:00,
2013-01-10 17:59:00,57.0,45.8,30.39,North,0,0.0,0.0,66,0.00,CLR,FEW,0.00,WeatherDisplay:10.37,2013-01-10 22:59:00,
2013-01-10 18:04:00,57.0,45.4,30.39,North,0,0.0,0.0,65,0.00,CLR,FEW,0.00,WeatherDisplay:10.37,2013-01-10 23:04:00,
2013-01-10 18:09:00,57.0,45.0,30.39,North,0,0.0,0.0,64,0.00,CLR,FEW,0.00,WeatherDisplay:10.37,2013-01-10 23:09:00,
2013-01-10 18:14:00,57.2,45.1,30.39,North,0,0.0,0.0,64,0.00,CLR,FEW,0.00,WeatherDisplay:10.37,2013-01-10 23:14:00,
2013-01-10 18:19:00,57.2,44.7,30.39,North,0,0.0,0.0,63,0.00,CLR,FEW,0.00,WeatherDisplay:10.37,2013-01-10 23:19:00,
2013-01-10 18:24:00,57.2,44.3,30.39,North,0,0.0,0.0,62,0.00,CLR,FEW,0.00,WeatherDisplay:10.37,2013-01-10 23:24:00,
2013-01-10 18:29:00,57.4,43.6,30.39,North,0,0.0,0.0,60,0.00,CLR,FEW,0.00,WeatherDisplay:10.37,2013-01-10 23:29:00,
2013-01-10 18:34:00,57.4,42.7,30.39,North,0,0.0,0.0,58,0.00,CLR,FEW,0.00,WeatherDisplay:10.37,2013-01-10 23:34:00,
2013-01-10 18:39:00,57.6,42.4,30.39,North,0,0.0,0.0,57,0.00,CLR,FEW,0.00,WeatherDisplay:10.37,2013-01-10 23:39:00,
2013-01-10 18:44:00,57.6,42.4,30.42,North,0,0.0,0.0,57,0.00,CLR,FEW,0.00,WeatherDisplay:10.37,2013-01-10 23:44:00,
2013-01-10 18:49:00,57.6,42.4,30.42,North,0,0.0,0.0,57,0.00,CLR,FEW,0.00,WeatherDisplay:10.37,2013-01-10 23:49:00,
2013-01-10 18:54:00,57.6,42.4,30.42,North,0,0.0,0.0,57,0.00,CLR,FEW,0.00,WeatherDisplay:10.37,2013-01-10 23:54:00,
2013-01-10 18:59:00,57.6,41.0,30.42,North,0,0.0,0.0,54,0.00,CLR,FEW,0.00,WeatherDisplay:10.37,2013-01-10 23:59:00,
2013-01-10 19:04:00,57.6,40.5,30.42,North,0,0.0,0.0,53,0.00,CLR,FEW,0.00,WeatherDisplay:10.37,2013-01-11 00:04:00,
2013-01-10 19:09:00,57.6,41.0,30.42,North,0,0.0,0.0,54,0.00,CLR,FEW,0.00,WeatherDisplay:10.37,2013-01-11 00:09:00,
2013-01-10 19:14:00,57.6,41.0,30.42,North,0,0.0,0.0,54,0.00,CLR,FEW,0.00,WeatherDisplay:10.37,2013-01-11 00:14:00,
2013-01-10 19:19:00,57.4,40.4,30.42,North,0,0.0,0.0,53,0.00,CLR,FEW,0.00,WeatherDisplay:10.37,2013-01-11 00:19:00,
2013-01-10 19:24:00,57.2,40.2,30.42,North,0,0.0,0.0,53,0.00,CLR,FEW,0.00,WeatherDisplay:10.37,2013-01-11 00:24:00,
2013-01-10 19:29:00,57.2,39.7,30.42,North,0,0.0,0.0,52,0.00,CLR,FEW,0.00,WeatherDisplay:10.37,2013-01-11 00:29:00,
2013-01-10 19:34:00,57.0,38.5,30.42,North,0,0.0,0.0,50,0.00,CLR,FEW,0.00,WeatherDisplay:10.37,2013-01-11 00:34:00,
2013-01-10 19:39:00,57.0,37.5,30.42,North,0,0.0,0.0,48,0.00,CLR,FEW,0.00,WeatherDisplay:10.37,2013-01-11 00:39:00,
2013-01-10 19:44:00,57.2,36.6,30.42,North,0,0.0,0.0,46,0.00,CLR,FEW,0.00,WeatherDisplay:10.37,2013-01-11 00:44:00,
2013-01-10 19:49:00,57.2,34.9,30.42,North,0,0.0,0.0,43,0.00,CLR,FEW,0.00,WeatherDisplay:10.37,2013-01-11 00:49:00,
2013-01-10 19:54:00,57.2,33.7,30.42,North,0,0.0,0.0,41,0.00,CLR,FEW,0.00,WeatherDisplay:10.37,2013-01-11 00:54:00,
2013-01-10 19:59:00,57.2,33.1,30.42,North,0,0.0,0.0,40,0.00,CLR,FEW,0.00,WeatherDisplay:10.37,2013-01-11 00:59:00,
2013-01-10 20:05:00,57.4,33.9,30.42,North,0,0.0,0.0,41,0.00,CLR,FEW,0.00,WeatherDisplay:10.37,2013-01-11 01:05:00,
2013-01-10 20:10:00,57.2,34.3,30.42,North,0,0.0,0.0,42,0.00,CLR,FEW,0.00,WeatherDisplay:10.37,2013-01-11 01:10:00,
2013-01-10 20:15:00,57.2,33.7,30.42,North,0,0.0,0.0,41,0.00,CLR,FEW,0.00,WeatherDisplay:10.37,2013-01-11 01:15:00,
2013-01-10 20:20:00,57.2,33.7,30.42,North,0,0.0,0.0,41,0.00,CLR,FEW,0.00,WeatherDisplay:10.37,2013-01-11 01:20:00,
2013-01-10 20:25:00,57.2,33.7,30.42,North,0,0.0,0.0,41,0.00,CLR,FEW,0.00,WeatherDisplay:10.37,2013-01-11 01:25:00,
2013-01-10 20:30:00,57.2,34.3,30.42,North,0,0.0,0.0,42,0.00,CLR,FEW,0.00,WeatherDisplay:10.37,2013-01-11 01:30:00,
2013-01-10 20:36:00,57.0,34.7,30.42,North,0,0.0,0.0,43,0.00,CLR,FEW,0.00,WeatherDisplay:10.37,2013-01-11 01:36:00,
2013-01-10 20:42:00,57.0,34.7,30.42,North,0,0.0,0.0,43,0.00,CLR,FEW,0.00,WeatherDisplay:10.37,2013-01-11 01:42:00,
2013-01-10 20:47:00,57.0,35.3,30.42,North,0,0.0,0.0,44,0.00,CLR,FEW,0.00,WeatherDisplay:10.37,2013-01-11 01:47:00,
2013-01-10 20:52:00,56.8,35.1,30.42,North,0,0.0,0.0,44,0.00,CLR,FEW,0.00,WeatherDisplay:10.37,2013-01-11 01:52:00,
2013-01-10 20:58:00,56.8,35.7,30.39,North,0,0.0,0.0,45,0.00,CLR,FEW,0.00,WeatherDisplay:10.37,2013-01-11 01:58:00,
2013-01-10 21:03:00,56.8,36.3,30.39,North,0,0.0,0.0,46,0.00,CLR,FEW,0.00,WeatherDisplay:10.37,2013-01-11 02:03:00,
2013-01-10 21:08:00,56.7,36.1,30.39,North,0,0.0,0.0,46,0.00,CLR,FEW,0.00,WeatherDisplay:10.37,2013-01-11 02:08:00,
2013-01-10 21:13:00,56.7,36.1,30.39,North,0,0.0,0.0,46,0.00,CLR,FEW,0.00,WeatherDisplay:10.37,2013-01-11 02:13:00,
2013-01-10 21:18:00,56.7,36.1,30.39,North,0,0.0,0.0,46,0.00,CLR,FEW,0.00,WeatherDisplay:10.37,2013-01-11 02:18:00,
2013-01-10 21:23:00,56.7,36.6,30.39,North,0,0.0,0.0,47,0.00,CLR,FEW,0.00,WeatherDisplay:10.37,2013-01-11 02:23:00,
2013-01-10 21:28:00,56.5,36.5,30.39,North,0,0.0,0.0,47,0.00,CLR,FEW,0.00,WeatherDisplay:10.37,2013-01-11 02:28:00,
2013-01-10 21:33:00,56.5,36.5,30.39,North,0,0.0,0.0,47,0.00,CLR,FEW,0.00,WeatherDisplay:10.37,2013-01-11 02:33:00,
2013-01-10 21:38:00,56.3,36.3,30.39,North,0,0.0,0.0,47,0.00,CLR,FEW,0.00,WeatherDisplay:10.37,2013-01-11 02:38:00,
2013-01-10 21:43:00,56.3,36.8,30.39,North,0,0.0,0.0,48,0.00,CLR,FEW,0.00,WeatherDisplay:10.37,2013-01-11 02:43:00,
2013-01-10 21:48:00,56.3,36.3,30.39,North,0,0.0,0.0,47,0.00,CLR,FEW,0.00,WeatherDisplay:10.37,2013-01-11 02:48:00,
2013-01-10 21:53:00,56.3,36.8,30.39,North,0,0.0,0.0,48,0.00,CLR,FEW,0.00,WeatherDisplay:10.37,2013-01-11 02:53:00,
2013-01-10 22:00:00,56.1,36.7,30.39,North,0,0.0,0.0,48,0.00,CLR,FEW,0.00,WeatherDisplay:10.37,2013-01-11 03:00:00,
2013-01-10 22:05:00,56.1,36.7,30.39,North,0,0.0,0.0,48,0.00,CLR,FEW,0.00,WeatherDisplay:10.37,2013-01-11 03:05:00,
2013-01-10 22:10:00,56.1,36.7,30.39,North,0,0.0,0.0,48,0.00,CLR,FEW,0.00,WeatherDisplay:10.37,2013-01-11 03:10:00,
2013-01-10 22:15:00,55.9,36.5,30.39,North,0,0.0,0.0,48,0.00,CLR,FEW,0.00,WeatherDisplay:10.37,2013-01-11 03:15:00,
2013-01-10 22:20:00,55.9,36.5,30.39,North,0,0.0,0.0,48,0.00,CLR,FEW,0.00,WeatherDisplay:10.37,2013-01-11 03:20:00,
2013-01-10 22:25:00,55.9,37.0,30.39,North,0,0.0,0.0,49,0.00,CLR,FEW,0.00,WeatherDisplay:10.37,2013-01-11 03:25:00,
2013-01-10 22:30:00,55.8,36.9,30.39,North,0,0.0,0.0,49,0.00,CLR,FEW,0.00,WeatherDisplay:10.37,2013-01-11 03:30:00,
2013-01-10 22:35:00,55.8,36.9,30.39,North,0,0.0,0.0,49,0.00,CLR,FEW,0.00,WeatherDisplay:10.37,2013-01-11 03:35:00,
2013-01-10 22:40:00,55.8,36.9,30.39,North,0,0.0,0.0,49,0.00,CLR,FEW,0.00,WeatherDisplay:10.37,2013-01-11 03:40:00,
2013-01-10 22:46:00,55.8,36.9,30.39,North,0,0.0,0.0,49,0.00,CLR,FEW,0.00,WeatherDisplay:10.37,2013-01-11 03:46:00,
2013-01-10 22:51:00,55.8,36.9,30.39,North,0,0.0,0.0,49,0.00,CLR,FEW,0.00,WeatherDisplay:10.37,2013-01-11 03:51:00,
2013-01-10 22:57:00,55.6,37.2,30.39,North,0,0.0,0.0,50,0.00,CLR,FEW,0.00,WeatherDisplay:10.37,2013-01-11 03:57:00,
2013-01-10 23:02:00,55.6,37.7,30.39,North,0,0.0,0.0,51,0.00,CLR,FEW,0.00,WeatherDisplay:10.37,2013-01-11 04:02:00,
2013-01-10 23:08:00,55.6,37.7,30.39,North,0,0.0,0.0,51,0.00,CLR,FEW,0.00,WeatherDisplay:10.37,2013-01-11 04:08:00,
2013-01-10 23:14:00,55.6,38.2,30.39,North,0,0.0,0.0,52,0.00,CLR,FEW,0.00,WeatherDisplay:10.37,2013-01-11 04:14:00,
2013-01-10 23:19:00,55.6,38.2,30.39,North,0,0.0,0.0,52,0.00,CLR,FEW,0.00,WeatherDisplay:10.37,2013-01-11 04:19:00,
2013-01-10 23:24:00,55.4,38.5,30.39,North,0,0.0,0.0,53,0.00,CLR,FEW,0.00,WeatherDisplay:10.37,2013-01-11 04:24:00,
2013-01-10 23:29:00,55.4,39.0,30.36,North,0,0.0,0.0,54,0.00,CLR,FEW,0.00,WeatherDisplay:10.37,2013-01-11 04:29:00,
2013-01-10 23:34:00,55.4,39.0,30.36,North,0,0.0,0.0,54,0.00,CLR,FEW,0.00,WeatherDisplay:10.37,2013-01-11 04:34:00,
2013-01-10 23:39:00,55.4,39.5,30.36,North,0,0.0,0.0,55,0.00,CLR,FEW,0.00,WeatherDisplay:10.37,2013-01-11 04:39:00,
2013-01-10 23:44:00,55.4,39.5,30.39,North,0,0.0,0.0,55,0.00,CLR,FEW,0.00,WeatherDisplay:10.37,2013-01-11 04:44:00,
2013-01-10 23:50:00,55.4,40.0,30.39,North,0,0.0,0.0,56,0.00,CLR,FEW,0.00,WeatherDisplay:10.37,2013-01-11 04:50:00,
2013-01-10 23:55:00,55.4,40.0,30.39,North,0,0.0,0.0,56,0.00,CLR,FEW,0.00,WeatherDisplay:10.37,2013-01-11 04:55:00,